Time;durP1;ratioP1;P1;durP2;ratioP2;P2;SDS_P1;SDS_P2;PMS_P1;PMS_P2;Temp;Humidity;BMP_temperature;BMP_pressure;BME280_temperature;BME280_humidity;BME280_pressure;Samples;Min_cycle;Max_cycle;Signal;HPM_P1;HPM_P2
2021/04/06 00:01:58;;;;;;;5.85;2.22;;;-0.30;99.90;;;;;;5133878;27;20030;-73
2021/04/06 00:04:31;;;;;;;2.63;1.75;;;-0.40;99.90;;;;;;5132563;27;20543;-72
2021/04/06 00:07:02;;;;;;;4.10;2.17;;;-0.50;99.90;;;;;;5133738;27;20027;-72
2021/04/06 00:09:29;;;;;;;3.35;2.38;;;-0.60;99.90;;;;;;5133737;27;20064;-73
2021/04/06 00:11:58;;;;;;;3.08;2.28;;;-1.00;99.90;;;;;;5133714;27;20019;-72
2021/04/06 00:14:26;;;;;;;4.40;2.65;;;-1.00;99.90;;;;;;5133702;27;20478;-72
2021/04/06 00:16:53;;;;;;;7.47;4.18;;;-1.10;99.90;;;;;;5132419;27;20015;-72
2021/04/06 00:19:21;;;;;;;4.97;2.45;;;-1.00;99.90;;;;;;5133456;27;20094;-72
2021/04/06 00:21:57;;;;;;;3.00;1.98;;;-0.90;99.90;;;;;;5133553;27;20493;-73
2021/04/06 00:24:26;;;;;;;5.05;2.40;;;-0.80;99.90;;;;;;5132248;27;20023;-73
2021/04/06 00:27:04;;;;;;;4.75;3.15;;;-1.00;99.90;;;;;;5133473;27;20023;-73
2021/04/06 00:29:35;;;;;;;4.07;2.40;;;-1.00;99.90;;;;;;5132134;27;20487;-73
2021/04/06 00:32:03;;;;;;;5.25;2.00;;;-1.10;99.90;;;;;;5133384;27;20027;-73
2021/04/06 00:34:31;;;;;;;4.05;1.98;;;-1.00;99.90;;;;;;5133380;27;20094;-72
2021/04/06 00:37:01;;;;;;;11.32;2.88;;;-0.90;99.90;;;;;;5133176;27;20036;-72
2021/04/06 00:39:31;;;;;;;4.18;2.38;;;-0.80;99.90;;;;;;5133197;27;20137;-72
2021/04/06 00:42:03;;;;;;;3.15;2.22;;;-0.90;99.90;;;;;;5133220;27;20071;-73
2021/04/06 00:44:31;;;;;;;7.72;2.22;;;-0.90;99.90;;;;;;5133218;27;20039;-73
2021/04/06 00:46:57;;;;;;;3.67;2.47;;;-1.00;99.90;;;;;;5132480;27;20390;-73
2021/04/06 00:49:24;;;;;;;9.25;2.70;;;-0.90;99.90;;;;;;5131879;27;20367;-73
2021/04/06 00:51:52;;;;;;;5.25;2.03;;;-0.90;99.90;;;;;;5133082;27;20428;-72
2021/04/06 00:54:18;;;;;;;3.72;2.40;;;-1.00;99.90;;;;;;5132888;27;20040;-73
2021/04/06 00:56:45;;;;;;;4.93;2.40;;;-1.00;99.90;;;;;;5133598;27;20034;-72
2021/04/06 00:59:13;;;;;;;5.50;2.20;;;-1.00;99.90;;;;;;5133004;27;20031;-72
2021/04/06 01:01:47;;;;;;;5.18;2.25;;;-1.10;99.90;;;;;;5133043;27;20086;-72
2021/04/06 01:04:19;;;;;;;5.78;2.05;;;-1.30;99.90;;;;;;5132949;27;20027;-72
2021/04/06 01:06:53;;;;;;;2.90;2.45;;;-1.30;99.90;;;;;;5132939;27;20043;-73
2021/04/06 01:09:47;;;;;;;5.72;2.90;;;-1.30;99.90;;;;;;5132893;27;20019;-72
2021/04/06 01:12:16;;;;;;;5.00;2.80;;;-1.40;99.90;;;;;;5133212;27;20011;-73
2021/04/06 01:14:44;;;;;;;4.47;2.70;;;-1.50;99.90;;;;;;5132928;27;20050;-73
2021/04/06 01:17:14;;;;;;;9.90;2.25;;;-1.60;99.90;;;;;;5132794;27;20046;-73
2021/04/06 01:19:40;;;;;;;6.57;2.30;;;-1.40;99.90;;;;;;5132776;28;20015;-72
2021/04/06 01:22:14;;;;;;;5.53;2.17;;;-1.20;99.90;;;;;;5131396;28;20114;-72
2021/04/06 01:24:42;;;;;;;3.38;2.33;;;-1.10;99.90;;;;;;5132771;27;20496;-73
2021/04/06 01:27:18;;;;;;;5.43;2.45;;;-1.10;99.90;;;;;;5132737;27;20467;-72
2021/04/06 01:29:53;;;;;;;10.63;3.85;;;-0.90;99.90;;;;;;5132796;27;20023;-72
2021/04/06 01:32:20;;;;;;;3.00;2.70;;;-1.10;99.90;;;;;;5131371;28;20046;-72
2021/04/06 01:34:46;;;;;;;5.07;2.90;;;-1.10;99.90;;;;;;5132673;27;20034;-72
2021/04/06 01:37:17;;;;;;;4.55;2.50;;;-1.20;99.90;;;;;;5131337;28;20019;-73
2021/04/06 01:39:43;;;;;;;4.63;2.60;;;-1.30;99.90;;;;;;5132685;27;20030;-72
2021/04/06 01:42:12;;;;;;;4.65;2.92;;;-1.30;99.90;;;;;;5132617;27;20019;-73
2021/04/06 01:44:39;;;;;;;7.93;2.95;;;-1.30;99.90;;;;;;5131397;28;20019;-72
2021/04/06 01:47:05;;;;;;;4.22;2.42;;;-1.30;99.90;;;;;;5132599;27;20030;-73
2021/04/06 01:49:31;;;;;;;6.78;4.05;;;-1.30;99.90;;;;;;5132516;27;20092;-72
2021/04/06 01:51:58;;;;;;;6.57;3.20;;;-1.30;99.90;;;;;;5132499;27;20023;-71
2021/04/06 01:54:26;;;;;;;5.50;3.13;;;-1.30;99.90;;;;;;5132458;27;20054;-72
2021/04/06 01:56:53;;;;;;;6.85;3.60;;;-1.30;99.90;;;;;;5132794;27;20034;-71
2021/04/06 01:59:40;;;;;;;6.88;3.42;;;-1.30;99.90;;;;;;5136244;27;20023;-72
2021/04/06 02:02:09;;;;;;;5.30;3.13;;;-1.30;99.90;;;;;;5135349;27;20522;-72
2021/04/06 02:04:34;;;;;;;7.22;3.30;;;-1.50;99.90;;;;;;5136186;27;20019;-72
2021/04/06 02:07:01;;;;;;;8.15;3.47;;;-1.60;99.90;;;;;;5136163;27;20031;-73
2021/04/06 02:09:27;;;;;;;4.65;3.20;;;-1.50;99.90;;;;;;5136046;27;20364;-73
2021/04/06 02:11:53;;;;;;;6.38;3.78;;;-1.60;99.90;;;;;;5136140;27;20023;-72
2021/04/06 02:14:21;;;;;;;8.35;3.60;;;-1.70;99.90;;;;;;5135960;27;20070;-72
2021/04/06 02:16:50;;;;;;;5.47;3.25;;;-1.60;99.90;;;;;;5135877;27;20042;-72
2021/04/06 02:19:27;;;;;;;9.27;4.55;;;-1.70;99.90;;;;;;5135858;27;20522;-73
2021/04/06 02:21:54;;;;;;;7.68;3.80;;;-1.70;99.90;;;;;;5135752;27;20051;-73
2021/04/06 02:24:39;;;;;;;10.70;3.67;;;-1.80;99.90;;;;;;5135743;27;20026;-72
2021/04/06 02:27:17;;;;;;;13.18;4.63;;;-1.60;99.90;;;;;;5135834;27;20023;-72
2021/04/06 02:29:52;;;;;;;8.38;4.65;;;-1.60;99.90;;;;;;5135768;27;20023;-72
2021/04/06 02:32:27;;;;;;;7.35;4.00;;;-1.70;99.90;;;;;;5134363;27;20047;-73
2021/04/06 02:34:55;;;;;;;5.82;3.45;;;-1.50;99.90;;;;;;5135611;27;20027;-72
2021/04/06 02:37:33;;;;;;;8.13;3.95;;;-1.50;99.90;;;;;;5135358;27;20030;-73
2021/04/06 02:40:05;;;;;;;11.57;4.13;;;-1.60;99.90;;;;;;5135512;27;20040;-73
2021/04/06 02:42:34;;;;;;;4.95;3.20;;;-1.80;99.90;;;;;;5135474;27;20689;-72
2021/04/06 02:45:14;;;;;;;6.60;3.83;;;-1.90;99.90;;;;;;5135409;27;20027;-73
2021/04/06 02:47:47;;;;;;;5.53;4.22;;;-1.90;99.90;;;;;;5135394;27;20480;-73
2021/04/06 02:50:16;;;;;;;15.30;4.45;;;-1.90;99.90;;;;;;5133876;27;20432;-72
2021/04/06 02:52:42;;;;;;;8.60;3.92;;;-2.00;99.90;;;;;;5135139;27;20047;-72
2021/04/06 02:55:11;;;;;;;5.18;3.22;;;-2.00;99.90;;;;;;5135165;27;20027;-72
2021/04/06 02:57:42;;;;;;;8.27;4.00;;;-1.90;99.90;;;;;;5135028;27;20049;-73
2021/04/06 03:00:09;;;;;;;7.38;3.05;;;-1.80;99.90;;;;;;5135084;27;20034;-72
2021/04/06 03:02:39;;;;;;;5.72;3.45;;;-1.70;99.90;;;;;;5135083;27;20015;-73
2021/04/06 03:05:05;;;;;;;8.68;4.32;;;-1.70;99.90;;;;;;5134954;27;20015;-73
2021/04/06 03:07:31;;;;;;;9.07;3.75;;;-1.80;99.90;;;;;;5134921;27;20206;-72
2021/04/06 03:09:59;;;;;;;11.50;3.60;;;-2.00;99.90;;;;;;5134195;27;20057;-73
2021/04/06 03:12:30;;;;;;;9.35;4.13;;;-2.00;99.90;;;;;;5134748;27;20019;-72
2021/04/06 03:14:57;;;;;;;8.50;3.30;;;-2.00;99.90;;;;;;5134831;27;20023;-73
2021/04/06 03:17:23;;;;;;;6.05;3.83;;;-2.10;99.90;;;;;;5134627;27;20033;-72
2021/04/06 03:19:57;;;;;;;11.68;4.15;;;-2.10;99.90;;;;;;5133477;27;20060;-73
2021/04/06 03:22:25;;;;;;;6.05;3.47;;;-2.10;99.90;;;;;;5134678;27;20019;-73
2021/04/06 03:24:52;;;;;;;10.55;3.70;;;-2.30;99.90;;;;;;5134605;27;20097;-73
2021/04/06 03:27:27;;;;;;;10.55;3.88;;;-2.10;99.90;;;;;;5134563;27;20479;-73
2021/04/06 03:29:53;;;;;;;8.38;3.25;;;-2.00;99.90;;;;;;5134583;27;20428;-72
2021/04/06 03:32:21;;;;;;;7.05;2.65;;;-2.10;99.90;;;;;;5134623;27;20023;-73
2021/04/06 03:34:47;;;;;;;11.68;3.28;;;-2.10;99.90;;;;;;5134406;27;20023;-73
2021/04/06 03:37:13;;;;;;;4.95;3.20;;;-2.00;99.90;;;;;;5134282;27;20079;-72
2021/04/06 03:39:39;;;;;;;5.53;3.00;;;-2.10;99.90;;;;;;5134235;27;20382;-72
2021/04/06 03:42:06;;;;;;;11.27;3.03;;;-2.10;99.90;;;;;;5134230;27;20471;-72
2021/04/06 03:44:32;;;;;;;7.35;2.90;;;-2.10;99.90;;;;;;5132969;27;20016;-72
2021/04/06 03:47:03;;;;;;;4.63;2.58;;;-2.20;99.90;;;;;;5134167;27;20022;-72
2021/04/06 03:49:31;;;;;;;10.27;3.47;;;-2.20;99.90;;;;;;5134042;27;20044;-72
2021/04/06 03:51:58;;;;;;;3.35;3.05;;;-2.10;99.90;;;;;;5134083;27;20042;-72
2021/04/06 03:54:44;;;;;;;4.43;2.53;;;-2.10;99.90;;;;;;5133960;27;20148;-72
2021/04/06 03:57:38;;;;;;;3.47;2.13;;;-2.20;99.90;;;;;;5133878;27;20235;-72
2021/04/06 04:00:08;;;;;;;8.10;2.65;;;-2.20;99.90;;;;;;5133981;27;20493;-72
2021/04/06 04:02:34;;;;;;;8.98;2.80;;;-2.30;99.90;;;;;;5133801;27;20023;-73
2021/04/06 04:05:01;;;;;;;9.50;2.88;;;-2.20;99.90;;;;;;5133720;27;20221;-73
2021/04/06 04:07:27;;;;;;;3.28;2.38;;;-2.20;99.90;;;;;;5133698;27;20023;-72
2021/04/06 04:09:52;;;;;;;6.65;2.65;;;-2.30;99.90;;;;;;5133799;27;20034;-72
2021/04/06 04:12:18;;;;;;;3.10;2.50;;;-2.10;99.90;;;;;;5133742;27;20402;-72
2021/04/06 04:14:44;;;;;;;6.10;3.17;;;-2.10;99.90;;;;;;5133533;27;20027;-72
2021/04/06 04:17:11;;;;;;;6.32;2.30;;;-2.10;99.90;;;;;;5132283;27;20027;-73
2021/04/06 04:19:37;;;;;;;5.05;2.63;;;-2.00;99.90;;;;;;5133405;27;20152;-73
2021/04/06 04:22:03;;;;;;;14.60;2.88;;;-2.00;99.90;;;;;;5132610;27;20102;-73
2021/04/06 04:24:29;;;;;;;9.00;3.20;;;-2.00;99.90;;;;;;5133440;27;20023;-73
2021/04/06 04:26:55;;;;;;;7.15;2.35;;;-2.00;99.90;;;;;;5133437;27;20149;-73
2021/04/06 04:29:21;;;;;;;11.30;2.90;;;-2.00;99.90;;;;;;5132206;27;20132;-73
2021/04/06 04:31:49;;;;;;;6.95;2.63;;;-2.10;99.90;;;;;;5133304;27;20024;-73
2021/04/06 04:34:15;;;;;;;7.25;3.15;;;-2.10;99.90;;;;;;5133340;27;20027;-72
2021/04/06 04:36:41;;;;;;;5.90;2.45;;;-2.20;99.90;;;;;;5133361;27;20020;-72
2021/04/06 04:39:07;;;;;;;6.95;2.45;;;-2.30;99.90;;;;;;5133086;27;20382;-73
2021/04/06 04:41:33;;;;;;;7.28;3.10;;;-2.30;99.90;;;;;;5133153;27;20478;-73
2021/04/06 04:43:59;;;;;;;6.85;3.10;;;-2.30;99.90;;;;;;5131807;27;20061;-73
2021/04/06 04:46:25;;;;;;;5.97;2.42;;;-2.30;99.90;;;;;;5133180;27;20094;-72
2021/04/06 04:48:50;;;;;;;8.60;2.25;;;-2.30;99.90;;;;;;5133071;27;20023;-72
2021/04/06 04:51:16;;;;;;;5.50;2.13;;;-2.20;99.90;;;;;;5133042;27;20031;-72
2021/04/06 04:53:42;;;;;;;19.40;3.38;;;-2.00;99.90;;;;;;5132922;27;20057;-71
2021/04/06 04:56:08;;;;;;;10.00;2.40;;;-1.70;99.90;;;;;;5131858;27;20027;-73
2021/04/06 04:58:33;;;;;;;4.95;2.42;;;-1.60;99.90;;;;;;5132928;27;20387;-73
2021/04/06 05:00:59;;;;;;;6.93;2.47;;;-1.50;99.90;;;;;;5132506;28;20075;-72
2021/04/06 05:03:25;;;;;;;7.85;2.92;;;-1.40;99.90;;;;;;5132396;28;20474;-72
2021/04/06 05:05:51;;;;;;;8.35;2.95;;;-1.50;99.90;;;;;;5131029;28;20160;-72
2021/04/06 05:08:17;;;;;;;5.60;2.78;;;-1.50;99.90;;;;;;5132349;28;20066;-72
2021/04/06 05:10:42;;;;;;;8.38;3.00;;;-1.40;99.90;;;;;;5132534;27;20035;-73
2021/04/06 05:13:08;;;;;;;5.78;2.40;;;-1.50;99.90;;;;;;5132383;27;20360;-73
2021/04/06 05:15:34;;;;;;;5.32;2.25;;;-1.50;99.90;;;;;;5132378;27;20023;-73
2021/04/06 05:18:00;;;;;;;11.38;2.90;;;-1.50;99.90;;;;;;5132373;27;20110;-73
2021/04/06 05:20:26;;;;;;;10.75;2.88;;;-1.50;99.90;;;;;;5132358;28;20504;-72
2021/04/06 05:22:52;;;;;;;14.98;3.72;;;-1.50;99.90;;;;;;5132477;28;20030;-73
2021/04/06 05:25:17;;;;;;;3.35;2.35;;;-1.50;99.90;;;;;;5132267;27;20471;-72
2021/04/06 05:27:44;;;;;;;7.32;3.25;;;-1.50;99.90;;;;;;5132443;28;20019;-72
2021/04/06 05:30:10;;;;;;;9.52;2.88;;;-1.60;99.90;;;;;;5132270;27;20471;-72
2021/04/06 05:32:39;;;;;;;5.30;2.95;;;-1.80;99.90;;;;;;5133916;27;20359;-72
2021/04/06 05:35:05;;;;;;;6.20;3.13;;;-1.90;99.90;;;;;;5136097;27;20051;-72
2021/04/06 05:37:31;;;;;;;7.65;3.78;;;-2.00;99.90;;;;;;5136232;27;20033;-72
2021/04/06 05:40:00;;;;;;;7.28;3.15;;;-2.00;99.90;;;;;;5136159;27;20105;-73
2021/04/06 05:42:26;;;;;;;5.75;3.65;;;-2.00;99.90;;;;;;5136103;27;20071;-72
2021/04/06 05:44:53;;;;;;;5.50;2.80;;;-1.90;99.90;;;;;;5136037;27;20055;-73
2021/04/06 05:47:36;;;;;;;13.95;3.40;;;-1.80;99.90;;;;;;5135796;27;20025;-73
2021/04/06 05:50:04;;;;;;;13.40;3.10;;;-1.60;99.90;;;;;;5136100;27;20038;-72
2021/04/06 05:52:33;;;;;;;5.40;2.40;;;-1.60;99.90;;;;;;5135646;27;20031;-73
2021/04/06 05:55:01;;;;;;;9.73;2.88;;;-1.60;99.90;;;;;;5135990;27;20050;-73
2021/04/06 05:57:27;;;;;;;11.25;3.15;;;-1.70;99.90;;;;;;5134622;27;20031;-73
2021/04/06 05:59:53;;;;;;;4.32;3.00;;;-1.70;99.90;;;;;;5134677;27;20058;-73
2021/04/06 06:02:19;;;;;;;10.15;3.15;;;-1.70;99.90;;;;;;5135945;27;20027;-73
2021/04/06 06:04:45;;;;;;;5.40;3.22;;;-1.80;99.90;;;;;;5135342;27;20031;-72
2021/04/06 06:07:13;;;;;;;10.93;3.10;;;-1.80;99.90;;;;;;5135770;27;20050;-73
2021/04/06 06:09:40;;;;;;;3.97;2.92;;;-2.00;99.90;;;;;;5134107;27;20023;-73
2021/04/06 06:12:08;;;;;;;8.80;2.85;;;-1.90;99.90;;;;;;5135712;27;20031;-73
2021/04/06 06:14:39;;;;;;;6.43;2.95;;;-1.90;99.90;;;;;;5135361;27;20032;-72
2021/04/06 06:17:12;;;;;;;7.22;3.35;;;-2.00;99.90;;;;;;5135494;27;20107;-72
2021/04/06 06:19:39;;;;;;;6.13;2.83;;;-1.90;99.90;;;;;;5135599;27;20087;-73
2021/04/06 06:22:13;;;;;;;7.13;3.05;;;-1.90;99.90;;;;;;5135358;27;20046;-73
2021/04/06 06:24:43;;;;;;;9.75;2.05;;;-1.80;99.90;;;;;;5135258;27;20019;-73
2021/04/06 06:27:38;;;;;;;6.03;3.30;;;-1.80;99.90;;;;;;5135243;27;20012;-73
2021/04/06 06:30:30;;;;;;;15.07;2.83;;;-1.80;99.90;;;;;;5094666;28;20375;-73
2021/04/06 06:33:15;;;;;;;7.30;3.35;;;-1.50;99.90;;;;;;5107160;27;20023;-73
2021/04/06 06:36:01;;;;;;;6.35;2.58;;;-1.60;99.90;;;;;;5134915;27;20068;-73
2021/04/06 06:38:30;;;;;;;5.72;3.75;;;-1.50;99.90;;;;;;5134899;27;20046;-73
2021/04/06 06:41:13;;;;;;;11.38;3.67;;;-1.40;99.90;;;;;;5133580;27;20053;-73
2021/04/06 06:43:58;;;;;;;7.20;3.30;;;-1.30;99.90;;;;;;5133671;27;20020;-73
2021/04/06 06:46:31;;;;;;;11.85;3.30;;;-1.20;99.90;;;;;;5135008;27;20454;-73
2021/04/06 06:48:59;;;;;;;12.60;2.83;;;-1.20;99.90;;;;;;5134634;27;20034;-72
2021/04/06 06:51:34;;;;;;;8.73;4.30;;;-1.10;99.90;;;;;;5134879;27;20442;-73
2021/04/06 06:54:01;;;;;;;9.63;2.85;;;-1.10;99.90;;;;;;5134499;27;20091;-73
2021/04/06 06:56:33;;;;;;;6.70;3.20;;;-1.10;99.90;;;;;;5134821;27;20041;-73
2021/04/06 06:59:00;;;;;;;5.70;3.95;;;-0.90;99.90;;;;;;5134490;27;20015;-73
2021/04/06 07:01:28;;;;;;;31.88;3.92;;;-0.90;99.90;;;;;;5134532;27;20030;-73
2021/04/06 07:04:06;;;;;;;25.65;3.78;;;-0.80;99.90;;;;;;5134288;27;20020;-73
2021/04/06 07:06:45;;;;;;;72.47;5.25;;;-0.90;99.90;;;;;;5132369;27;20487;-71
2021/04/06 07:09:22;;;;;;;10.57;3.00;;;-0.80;99.90;;;;;;5134263;27;20030;-73
2021/04/06 07:11:51;;;;;;;13.73;4.55;;;-0.60;99.90;;;;;;5133326;27;20487;-72
2021/04/06 07:14:17;;;;;;;19.23;3.92;;;-0.80;99.90;;;;;;5132440;27;20027;-73
2021/04/06 07:16:44;;;;;;;9.43;3.95;;;-0.90;99.90;;;;;;5134077;27;20409;-73
2021/04/06 07:19:12;;;;;;;21.58;5.55;;;-1.00;99.90;;;;;;5134203;27;20031;-72
2021/04/06 07:21:41;;;;;;;16.08;4.13;;;-1.10;99.90;;;;;;5134373;27;20103;-72
2021/04/06 07:24:13;;;;;;;18.00;4.03;;;-1.00;99.90;;;;;;5133796;27;20019;-73
2021/04/06 07:26:40;;;;;;;7.00;3.47;;;-1.20;99.90;;;;;;5134218;27;20476;-73
2021/04/06 07:29:10;;;;;;;22.75;3.85;;;-1.20;99.90;;;;;;5133582;27;20076;-73
2021/04/06 07:31:37;;;;;;;10.85;4.32;;;-0.90;99.90;;;;;;5133891;27;20023;-73
2021/04/06 07:34:10;;;;;;;5.65;3.75;;;-0.70;99.90;;;;;;5133714;27;20081;-73
2021/04/06 07:36:36;;;;;;;11.25;3.00;;;-0.80;99.90;;;;;;5133963;27;20027;-73
2021/04/06 07:39:09;;;;;;;8.02;3.50;;;-0.70;99.90;;;;;;5133633;27;20033;-72
2021/04/06 07:41:40;;;;;;;9.95;3.30;;;-0.50;99.90;;;;;;5132500;27;20022;-73
2021/04/06 07:44:07;;;;;;;7.25;3.63;;;-0.50;99.90;;;;;;5133675;27;20098;-73
2021/04/06 07:46:35;;;;;;;12.68;4.07;;;-0.50;99.90;;;;;;5133595;27;20238;-73
2021/04/06 07:49:08;;;;;;;5.40;3.67;;;-0.60;99.90;;;;;;5133534;27;20098;-72
2021/04/06 07:51:55;;;;;;;7.43;3.53;;;-0.60;99.90;;;;;;5133252;27;20015;-73
2021/04/06 07:54:42;;;;;;;7.18;3.75;;;-0.40;99.90;;;;;;5132622;27;20043;-73
2021/04/06 07:57:08;;;;;;;12.23;4.22;;;-0.40;99.90;;;;;;5092367;28;20398;-72
2021/04/06 07:59:34;;;;;;;33.17;5.00;;;-0.40;99.90;;;;;;5092723;28;20096;-73
2021/04/06 08:02:01;;;;;;;30.73;5.28;;;0.00;99.90;;;;;;5121905;27;20130;-72
2021/04/06 08:04:47;;;;;;;8.55;3.53;;;0.10;99.90;;;;;;5132944;27;20568;-73
2021/04/06 08:07:19;;;;;;;31.35;4.32;;;0.10;99.90;;;;;;5131982;27;20111;-73
2021/04/06 08:09:45;;;;;;;;;;;0.10;99.90;;;;;;5133558;27;20440;-73
2021/04/06 08:12:15;;;;;;;30.23;3.67;;;0.40;99.90;;;;;;5133508;27;19955;-73
2021/04/06 08:14:47;;;;;;;28.95;3.60;;;0.80;99.90;;;;;;5133055;27;20045;-73
2021/04/06 08:17:25;;;;;;;35.92;3.72;;;1.30;98.10;;;;;;5133263;27;20041;-73
2021/04/06 08:20:00;;;;;;;5.10;2.67;;;1.20;93.10;;;;;;5132998;27;20102;-73
2021/04/06 08:22:31;;;;;;;9.85;2.15;;;1.20;92.60;;;;;;5133480;27;20103;-73
2021/04/06 08:25:23;;;;;;;10.87;2.73;;;1.20;91.50;;;;;;5132797;27;20023;-73
2021/04/06 08:27:54;;;;;;;5.85;3.17;;;1.50;91.80;;;;;;5122112;27;20067;-73
2021/04/06 08:30:24;;;;;;;6.05;2.20;;;1.80;91.60;;;;;;5132452;27;20158;-72
2021/04/06 08:32:59;;;;;;;4.05;2.60;;;1.90;88.90;;;;;;5132907;27;20027;-72
2021/04/06 08:38:33;;;;;;;6.65;2.05;;;1.70;87.70;;;;;;5132569;27;20027;-73
2021/04/06 08:41:00;;;;;;;9.45;2.60;;;1.60;88.60;;;;;;5132765;27;20079;-73
2021/04/06 08:43:35;;;;;;;5.63;3.28;;;1.70;91.00;;;;;;5132454;27;20533;-73
2021/04/06 08:46:06;;;;;;;10.45;2.65;;;2.00;91.00;;;;;;5132762;27;20039;-73
2021/04/06 08:48:55;;;;;;;4.40;2.47;;;1.80;88.60;;;;;;5132535;27;20031;-72
2021/04/06 08:51:50;;;;;;;2.60;2.10;;;1.70;86.40;;;;;;5132794;27;20395;-73
2021/04/06 08:54:20;;;;;;;6.25;3.15;;;1.80;88.50;;;;;;5124587;27;20050;-73
2021/04/06 08:56:49;;;;;;;46.38;3.90;;;1.90;90.10;;;;;;5131441;27;20145;-73
2021/04/06 08:59:33;;;;;;;5.22;2.13;;;1.70;89.10;;;;;;5131001;27;20024;-73
2021/04/06 09:01:59;;;;;;;11.57;3.42;;;1.60;88.20;;;;;;5131349;28;20030;-73
2021/04/06 09:04:33;;;;;;;9.63;2.35;;;1.70;89.70;;;;;;5131178;28;20404;-73
2021/04/06 09:06:59;;;;;;;12.38;2.58;;;1.60;88.40;;;;;;5133280;27;20015;-73
2021/04/06 09:09:27;;;;;;;76.25;7.65;;;1.70;90.50;;;;;;5136521;27;20027;-73
2021/04/06 09:11:55;;;;;;;71.10;4.40;;;1.90;89.20;;;;;;5136730;27;20023;-73
2021/04/06 09:14:22;;;;;;;11.20;2.50;;;1.60;88.70;;;;;;5136826;27;20027;-73
2021/04/06 09:16:50;;;;;;;6.30;2.25;;;1.50;89.50;;;;;;5136626;27;20026;-73
2021/04/06 09:19:17;;;;;;;7.93;2.75;;;1.50;91.50;;;;;;5136695;27;20110;-74
2021/04/06 09:21:46;;;;;;;16.67;3.15;;;1.60;91.80;;;;;;5136326;27;20033;-73
2021/04/06 09:24:14;;;;;;;10.52;2.55;;;1.60;91.50;;;;;;5136611;27;20538;-73
2021/04/06 09:26:41;;;;;;;6.88;2.35;;;1.40;90.80;;;;;;5136370;27;20037;-73
2021/04/06 09:29:14;;;;;;;7.25;2.20;;;1.60;92.80;;;;;;5136386;27;20029;-73
2021/04/06 09:31:54;;;;;;;7.53;3.28;;;1.60;91.30;;;;;;5136371;27;20031;-73
2021/04/06 09:34:22;;;;;;;15.23;3.17;;;1.60;91.80;;;;;;5094254;28;20035;-73
2021/04/06 09:36:55;;;;;;;4.47;2.60;;;1.30;90.00;;;;;;5094802;28;20039;-73
2021/04/06 09:39:22;;;;;;;5.85;2.70;;;1.40;91.20;;;;;;5110223;28;20027;-73
2021/04/06 09:41:49;;;;;;;6.13;2.38;;;1.40;91.20;;;;;;5126855;27;20374;-73
2021/04/06 09:44:19;;;;;;;10.45;2.47;;;1.50;91.80;;;;;;5133304;27;20090;-73
2021/04/06 09:46:54;;;;;;;9.20;3.20;;;1.60;91.70;;;;;;5131216;27;20474;-73
2021/04/06 09:49:20;;;;;;;10.13;3.10;;;1.60;92.00;;;;;;5129773;27;20027;-73
2021/04/06 09:51:49;;;;;;;7.65;2.92;;;1.70;92.70;;;;;;5135930;27;20026;-74
2021/04/06 09:54:31;;;;;;;17.40;3.35;;;1.40;92.00;;;;;;5135676;27;20035;-73
2021/04/06 09:57:02;;;;;;;38.53;4.13;;;1.10;92.20;;;;;;5135803;27;20055;-74
2021/04/06 09:59:29;;;;;;;13.45;5.20;;;1.10;93.60;;;;;;5135577;27;20024;-74
2021/04/06 10:01:57;;;;;;;7.20;3.38;;;1.30;93.50;;;;;;5135908;27;20033;-74
2021/04/06 10:04:38;;;;;;;9.32;3.55;;;1.50;95.00;;;;;;5135706;27;20072;-74
2021/04/06 10:07:19;;;;;;;12.33;3.77;;;1.50;93.50;;;;;;5104321;28;20495;-73
2021/04/06 10:09:54;;;;;;;8.30;2.70;;;1.80;94.40;;;;;;5115121;27;20544;-74
2021/04/06 10:12:22;;;;;;;7.28;2.80;;;1.50;93.20;;;;;;5132710;27;20019;-74
2021/04/06 10:14:49;;;;;;;11.35;2.95;;;1.60;94.60;;;;;;5135664;27;20066;-74
2021/04/06 10:17:16;;;;;;;12.02;2.97;;;2.30;93.80;;;;;;5135381;27;20475;-74
2021/04/06 10:19:55;;;;;;;19.70;4.00;;;2.60;91.00;;;;;;5135388;27;20040;-73
2021/04/06 10:22:24;;;;;;;37.17;4.05;;;2.90;93.80;;;;;;5134915;27;20027;-74
2021/04/06 10:24:59;;;;;;;12.48;4.50;;;3.30;91.00;;;;;;5135286;27;20075;-73
2021/04/06 10:27:36;;;;;;;11.48;3.05;;;3.10;86.50;;;;;;5135206;27;20030;-73
2021/04/06 10:30:09;;;;;;;5.72;2.72;;;2.70;89.40;;;;;;5135332;27;20083;-73
2021/04/06 10:32:41;;;;;;;13.43;2.95;;;2.90;85.10;;;;;;5135065;27;20024;-73
2021/04/06 10:35:08;;;;;;;;;;;2.70;86.10;;;;;;5135441;27;20035;-73
2021/04/06 10:37:46;;;;;;;12.98;3.53;;;2.70;87.40;;;;;;5134839;27;19907;-73
2021/04/06 10:40:37;;;;;;;13.00;4.35;;;2.80;91.30;;;;;;5123172;27;20033;-73
2021/04/06 10:43:07;;;;;;;24.33;4.57;;;2.50;87.60;;;;;;5133677;27;20019;-72
2021/04/06 10:45:36;;;;;;;25.13;3.80;;;3.30;92.60;;;;;;5134555;27;20464;-73
2021/04/06 10:48:14;;;;;;;7.40;3.03;;;3.80;90.30;;;;;;5134916;27;20062;-74
2021/04/06 10:50:44;;;;;;;25.60;3.80;;;3.30;81.50;;;;;;5134857;27;20051;-74
2021/04/06 10:53:21;;;;;;;15.05;3.17;;;2.80;86.10;;;;;;5134786;27;20510;-74
2021/04/06 10:55:51;;;;;;;17.42;4.18;;;2.70;84.10;;;;;;5134486;27;20023;-74
2021/04/06 10:58:28;;;;;;;10.90;3.75;;;2.80;86.40;;;;;;5134594;27;20023;-74
2021/04/06 11:00:59;;;;;;;20.23;4.80;;;2.20;85.10;;;;;;5134726;27;20027;-74
2021/04/06 11:03:26;;;;;;;12.50;4.15;;;2.20;87.30;;;;;;5134223;27;20019;-74
2021/04/06 11:05:52;;;;;;;25.23;4.72;;;2.00;86.80;;;;;;5134486;27;20030;-74
2021/04/06 11:08:25;;;;;;;31.67;5.30;;;2.20;89.50;;;;;;5134009;27;20383;-74
2021/04/06 11:10:53;;;;;;;9.15;3.97;;;2.00;87.50;;;;;;5134440;27;20459;-74
2021/04/06 11:13:20;;;;;;;23.55;3.97;;;2.00;86.40;;;;;;5134262;27;20015;-74
2021/04/06 11:15:46;;;;;;;8.98;3.72;;;2.10;86.50;;;;;;5134444;27;20479;-74
2021/04/06 11:18:13;;;;;;;20.73;4.78;;;2.20;85.30;;;;;;5134056;27;20027;-74
2021/04/06 11:20:40;;;;;;;15.55;4.68;;;1.90;85.10;;;;;;5134276;27;20144;-74
2021/04/06 11:23:06;;;;;;;36.15;4.82;;;1.70;86.90;;;;;;5134106;27;20110;-74
2021/04/06 11:25:32;;;;;;;17.00;4.03;;;2.00;88.20;;;;;;5133994;27;20110;-74
2021/04/06 11:27:59;;;;;;;8.93;3.38;;;2.20;86.50;;;;;;5134324;27;20027;-74
2021/04/06 11:30:35;;;;;;;21.95;6.85;;;2.50;87.80;;;;;;5133268;27;20034;-74
2021/04/06 11:33:03;;;;;;;10.23;3.67;;;2.70;85.20;;;;;;5134167;27;20041;-74
2021/04/06 11:35:29;;;;;;;15.02;5.38;;;2.70;86.90;;;;;;5133811;27;20023;-74
2021/04/06 11:37:55;;;;;;;55.78;6.15;;;2.80;88.10;;;;;;5133941;27;20027;-74
2021/04/06 11:40:23;;;;;;;36.67;5.93;;;3.00;86.20;;;;;;5133682;27;20023;-74
2021/04/06 11:42:48;;;;;;;19.77;4.80;;;3.30;82.60;;;;;;5133837;27;20076;-74
2021/04/06 11:45:15;;;;;;;18.38;3.30;;;3.00;82.40;;;;;;5133779;27;20023;-73
2021/04/06 11:47:41;;;;;;;16.15;3.55;;;3.00;81.40;;;;;;5132387;27;20031;-74
2021/04/06 11:50:08;;;;;;;14.13;4.20;;;3.70;80.00;;;;;;5133807;27;20046;-74
2021/04/06 11:52:34;;;;;;;31.35;3.78;;;3.50;80.00;;;;;;5131886;27;20052;-74
2021/04/06 11:55:01;;;;;;;9.05;3.65;;;3.10;79.80;;;;;;5133723;27;20142;-73
2021/04/06 11:57:27;;;;;;;25.92;4.55;;;2.80;79.00;;;;;;5133081;27;20106;-74
2021/04/06 11:59:53;;;;;;;13.38;3.83;;;3.20;81.00;;;;;;5133695;27;20323;-74
2021/04/06 12:02:19;;;;;;;18.67;3.08;;;3.80;78.30;;;;;;5133466;27;20027;-73
2021/04/06 12:04:45;;;;;;;37.53;3.97;;;3.50;76.70;;;;;;5109998;27;20024;-74
2021/04/06 12:07:11;;;;;;;24.77;3.42;;;3.80;78.10;;;;;;5121240;27;20377;-72
2021/04/06 12:09:37;;;;;;;67.03;5.50;;;4.30;76.30;;;;;;5133143;27;20059;-72
2021/04/06 12:12:03;;;;;;;29.38;5.57;;;4.20;73.70;;;;;;5133353;27;20037;-74
2021/04/06 12:14:29;;;;;;;18.50;3.35;;;4.40;75.20;;;;;;5133152;27;20026;-74
2021/04/06 12:16:55;;;;;;;16.30;3.83;;;4.10;73.10;;;;;;5133448;27;20019;-74
2021/04/06 12:19:22;;;;;;;19.33;3.55;;;4.00;77.70;;;;;;5133061;27;20486;-72
2021/04/06 12:21:47;;;;;;;16.13;3.92;;;4.00;75.10;;;;;;5132793;27;20028;-72
2021/04/06 12:24:13;;;;;;;24.38;3.95;;;3.70;75.40;;;;;;5132941;27;20020;-71
2021/04/06 12:26:39;;;;;;;14.55;3.75;;;3.90;75.90;;;;;;5132786;27;20112;-75
2021/04/06 12:29:05;;;;;;;14.57;3.58;;;3.80;76.00;;;;;;5133105;27;20027;-75
2021/04/06 12:31:31;;;;;;;7.10;4.13;;;3.80;78.00;;;;;;5132862;27;20051;-74
2021/04/06 12:33:57;;;;;;;16.27;3.30;;;4.00;78.00;;;;;;5132971;27;20076;-74
2021/04/06 12:36:23;;;;;;;5.43;3.13;;;3.40;75.50;;;;;;5132658;27;20023;-74
2021/04/06 12:38:49;;;;;;;10.98;3.65;;;3.80;77.00;;;;;;5132572;27;20027;-74
2021/04/06 12:41:14;;;;;;;10.48;3.60;;;4.10;78.00;;;;;;5132600;27;20042;-74
2021/04/06 12:43:40;;;;;;;15.10;3.90;;;3.90;76.20;;;;;;5132259;27;20387;-74
2021/04/06 12:46:06;;;;;;;10.48;3.60;;;3.90;76.40;;;;;;5132816;27;20540;-74
2021/04/06 12:48:32;;;;;;;14.88;3.30;;;3.90;77.40;;;;;;5132498;27;20562;-75
2021/04/06 12:50:58;;;;;;;8.40;3.20;;;4.00;78.50;;;;;;5132609;27;20019;-74
2021/04/06 12:53:24;;;;;;;9.50;3.35;;;3.90;75.00;;;;;;5131489;27;20035;-74
2021/04/06 12:55:49;;;;;;;13.85;3.58;;;3.40;76.40;;;;;;5132403;27;20099;-74
2021/04/06 12:58:15;;;;;;;10.00;3.58;;;3.70;78.60;;;;;;5131040;27;20023;-74
2021/04/06 13:00:41;;;;;;;10.93;3.90;;;3.50;76.50;;;;;;5125021;27;20077;-74
2021/04/06 13:03:07;;;;;;;8.75;3.25;;;3.50;76.90;;;;;;5112086;28;20031;-74
2021/04/06 13:05:33;;;;;;;6.50;3.40;;;3.40;77.60;;;;;;5112440;28;20045;-76